Time;durP1;ratioP1;P1;durP2;ratioP2;P2;SDS_P1;SDS_P2;PMS_P1;PMS_P2;Temp;Humidity;BMP_temperature;BMP_pressure;BME280_temperature;BME280_humidity;BME280_pressure;Samples;Min_cycle;Max_cycle;Signal;HPM_P1;HPM_P2
2023/06/24 00:01:28;;;;;;;12.60;11.50;;;;;;;19.15;100.00;95402.69;5058228;28;20865;-76
2023/06/24 00:03:53;;;;;;;13.85;12.80;;;;;;;19.11;100.00;95410.19;5057881;28;20439;-77
2023/06/24 00:06:19;;;;;;;14.15;12.85;;;;;;;19.27;100.00;95407.03;5057251;28;20051;-76
2023/06/24 00:08:47;;;;;;;13.70;12.50;;;;;;;19.30;100.00;95393.47;5057119;28;20025;-77
2023/06/24 00:11:13;;;;;;;13.32;12.23;;;;;;;19.19;100.00;95449.34;5057609;28;20029;-77
2023/06/24 00:13:39;;;;;;;14.82;13.63;;;;;;;19.13;100.00;95462.50;5060133;28;20375;-77
2023/06/24 00:16:06;;;;;;;14.32;13.32;;;;;;;19.21;100.00;95454.38;5061302;28;20025;-77
2023/06/24 00:18:32;;;;;;;12.75;11.52;;;;;;;19.10;100.00;95450.63;5060307;28;20025;-76
2023/06/24 00:20:57;;;;;;;13.80;12.63;;;;;;;19.04;100.00;95476.91;5037808;28;20098;-77
2023/06/24 00:23:26;;;;;;;13.95;12.73;;;;;;;19.01;100.00;95666.41;5061699;28;20025;-76
2023/06/24 00:25:52;;;;;;;13.02;11.48;;;;;;;18.84;100.00;95702.75;5059521;28;20020;-77
2023/06/24 00:28:17;;;;;;;13.35;12.35;;;;;;;18.70;100.00;95751.00;5041083;28;20102;-78
2023/06/24 00:30:43;;;;;;;13.73;12.73;;;;;;;18.75;100.00;95753.84;5052790;28;20545;-76
2023/06/24 00:33:10;;;;;;;13.32;12.32;;;;;;;18.82;100.00;95744.13;5062176;28;20502;-76
2023/06/24 00:35:37;;;;;;;14.25;12.95;;;;;;;18.77;100.00;95726.38;5059952;28;20398;-76
2023/06/24 00:38:04;;;;;;;14.60;12.60;;;;;;;18.74;100.00;95692.66;5057636;28;20025;-76
2023/06/24 00:40:29;;;;;;;14.15;12.98;;;;;;;18.62;100.00;95686.38;5061551;28;20032;-76
2023/06/24 00:42:55;;;;;;;14.90;13.35;;;;;;;18.66;100.00;95668.44;5060537;28;20433;-77
2023/06/24 00:45:22;;;;;;;13.40;12.40;;;;;;;18.64;100.00;95684.38;5060492;28;20024;-77
2023/06/24 00:47:48;;;;;;;12.43;11.43;;;;;;;18.76;100.00;95656.50;5060179;28;20031;-77
2023/06/24 00:50:14;;;;;;;12.43;11.13;;;;;;;18.72;100.00;95670.25;5043848;28;20025;-77
2023/06/24 00:52:42;;;;;;;13.07;11.98;;;;;;;18.60;100.00;95695.47;5042168;28;20051;-77
2023/06/24 00:55:09;;;;;;;13.52;12.23;;;;;;;18.53;100.00;95698.09;5059564;28;20024;-76
2023/06/24 00:57:38;;;;;;;13.13;12.07;;;;;;;18.58;100.00;95711.44;5059587;28;20598;-76
2023/06/24 01:00:08;;;;;;;;;;;;;;;18.55;100.00;95738.09;5057636;28;20048;-76
2023/06/24 01:02:37;;;;;;;13.50;12.40;;;;;;;18.61;100.00;95708.41;5054086;28;19990;-77
2023/06/24 01:05:05;;;;;;;16.65;13.02;;;;;;;18.71;100.00;95684.38;5059714;28;20096;-77
2023/06/24 01:07:32;;;;;;;14.23;12.77;;;;;;;18.60;100.00;95669.25;5058673;28;20102;-76
2023/06/24 01:09:57;;;;;;;14.07;12.82;;;;;;;18.59;100.00;95671.06;5036010;28;20132;-76
2023/06/24 01:12:23;;;;;;;13.55;12.40;;;;;;;18.67;100.00;95664.81;5060241;28;20869;-76
2023/06/24 01:14:48;;;;;;;13.43;12.20;;;;;;;18.55;100.00;95674.28;5059191;28;20109;-77
2023/06/24 01:17:24;;;;;;;14.10;12.57;;;;;;;18.78;100.00;95612.47;5060004;28;20059;-77
2023/06/24 01:20:09;;;;;;;14.25;12.93;;;;;;;18.71;100.00;95574.16;5046439;28;20024;-77
2023/06/24 01:22:47;;;;;;;14.00;12.65;;;;;;;18.74;100.00;95631.50;5059078;28;20028;-76
2023/06/24 01:25:34;;;;;;;12.93;12.13;;;;;;;18.78;100.00;95604.59;5061643;28;20020;-77
2023/06/24 01:28:08;;;;;;;14.02;12.40;;;;;;;18.83;100.00;95583.00;5060552;28;20024;-76
2023/06/24 01:31:00;;;;;;;13.90;12.90;;;;;;;18.94;100.00;95495.75;5058762;28;20325;-76
2023/06/24 01:34:11;;;;;;;13.65;12.45;;;;;;;18.85;100.00;95549.47;5059986;28;20481;-77
2023/06/24 01:36:38;;;;;;;15.32;13.88;;;;;;;18.79;100.00;95576.53;5035242;28;20072;-76
2023/06/24 01:39:08;;;;;;;14.90;13.57;;;;;;;18.71;100.00;95567.09;5059641;28;20744;-77
2023/06/24 01:41:42;;;;;;;15.63;14.10;;;;;;;18.66;100.00;95589.69;5059073;28;20020;-76
2023/06/24 01:44:10;;;;;;;15.10;13.95;;;;;;;18.57;100.00;95622.41;5058510;28;20382;-77
2023/06/24 01:46:37;;;;;;;16.25;14.82;;;;;;;18.50;100.00;95617.16;5059568;28;20017;-77
2023/06/24 01:49:04;;;;;;;14.88;13.73;;;;;;;18.54;100.00;95630.69;5038856;28;20029;-76
2023/06/24 01:51:31;;;;;;;14.55;13.55;;;;;;;18.63;100.00;95597.97;5055018;28;20036;-76
2023/06/24 01:54:07;;;;;;;15.23;13.68;;;;;;;18.86;100.00;95593.91;5058496;28;20505;-76
2023/06/24 01:56:34;;;;;;;14.85;13.45;;;;;;;18.98;100.00;95532.84;5058903;28;20559;-76
2023/06/24 01:59:01;;;;;;;14.65;13.15;;;;;;;19.18;100.00;95449.53;5059320;28;20082;-77
2023/06/24 02:01:27;;;;;;;14.55;13.35;;;;;;;19.10;100.00;95432.22;5058230;28;20049;-76
2023/06/24 02:03:55;;;;;;;13.73;12.70;;;;;;;19.44;100.00;95347.75;5059534;28;20016;-77
2023/06/24 02:06:22;;;;;;;14.13;13.13;;;;;;;19.87;100.00;95141.84;5058293;28;20455;-77
2023/06/24 02:08:48;;;;;;;12.48;11.45;;;;;;;20.17;100.00;95045.28;5059612;28;20052;-78
2023/06/24 02:11:15;;;;;;;13.02;11.80;;;;;;;20.49;100.00;95001.03;5058397;28;20056;-77
2023/06/24 02:13:42;;;;;;;13.70;10.77;;;;;;;20.78;100.00;94930.81;5056700;28;20037;-78
2023/06/24 02:16:08;;;;;;;13.00;11.77;;;;;;;20.60;100.00;94939.69;5027173;28;20417;-78
2023/06/24 02:18:42;;;;;;;12.52;11.32;;;;;;;20.78;100.00;94931.63;5052332;28;20051;-76
2023/06/24 02:21:08;;;;;;;12.13;11.02;;;;;;;20.98;100.00;94894.34;5058846;28;20593;-77
2023/06/24 02:23:35;;;;;;;11.90;10.90;;;;;;;20.98;100.00;94874.06;5057816;28;20085;-78
2023/06/24 02:26:01;;;;;;;11.07;10.18;;;;;;;20.81;100.00;94888.22;5042548;28;20058;-79
2023/06/24 02:28:27;;;;;;;11.85;11.05;;;;;;;20.90;100.00;94881.56;5057959;28;20390;-80
2023/06/24 02:30:52;;;;;;;11.13;10.25;;;;;;;20.63;100.00;94899.75;5041953;28;20093;-79
2023/06/24 02:33:18;;;;;;;13.20;11.98;;;;;;;20.81;100.00;94910.09;5044415;28;20032;-83
2023/06/24 02:35:46;;;;;;;13.07;11.55;;;;;;;20.49;100.00;94922.09;5056487;28;20032;-86
2023/06/24 02:38:11;;;;;;;12.80;11.57;;;;;;;20.59;100.00;94932.81;5049761;28;20029;-93
2023/06/24 02:40:36;;;;;;;12.43;11.45;;;;;;;20.49;100.00;94975.53;5057211;28;20547;-82
2023/06/24 02:43:02;;;;;;;12.25;11.35;;;;;;;20.48;100.00;94978.41;5058822;28;20028;-82
2023/06/24 02:45:28;;;;;;;12.20;11.40;;;;;;;20.33;100.00;95025.41;5058866;28;20024;-83
2023/06/24 02:47:54;;;;;;;13.07;12.02;;;;;;;20.42;100.00;95024.84;5039341;28;20028;-80
2023/06/24 02:50:21;;;;;;;12.93;11.70;;;;;;;20.44;100.00;95062.28;5038914;28;20478;-79
2023/06/24 02:52:46;;;;;;;12.63;11.73;;;;;;;20.46;100.00;95059.41;5034051;28;20029;-81
2023/06/24 02:55:12;;;;;;;12.93;11.85;;;;;;;20.45;100.00;95073.59;5052307;28;20457;-82
2023/06/24 02:57:39;;;;;;;13.02;11.90;;;;;;;20.39;100.00;95071.88;5040819;28;20059;-81
2023/06/24 03:00:05;;;;;;;12.23;11.18;;;;;;;20.50;100.00;95077.16;5041797;28;20127;-82
2023/06/24 03:02:32;;;;;;;14.35;13.20;;;;;;;20.21;100.00;95100.88;5037436;28;20119;-76
2023/06/24 03:04:58;;;;;;;12.77;11.82;;;;;;;19.98;100.00;95141.06;5036124;28;20040;-79
2023/06/24 03:07:24;;;;;;;12.65;11.75;;;;;;;20.16;100.00;95135.78;5059078;28;20448;-81
2023/06/24 03:09:52;;;;;;;13.75;12.63;;;;;;;20.11;100.00;95132.19;5058130;28;20473;-81
2023/06/24 03:12:17;;;;;;;13.23;12.15;;;;;;;20.10;100.00;95133.22;5037631;28;20025;-82
2023/06/24 03:14:43;;;;;;;13.43;12.32;;;;;;;20.10;100.00;95144.53;5038689;28;20035;-81
2023/06/24 03:17:08;;;;;;;13.57;12.18;;;;;;;19.94;100.00;95167.00;5058291;28;20040;-81
2023/06/24 03:19:34;;;;;;;12.82;11.75;;;;;;;19.96;100.00;95180.75;5057147;28;20043;-80
2023/06/24 03:21:59;;;;;;;13.07;11.75;;;;;;;19.94;100.00;95209.09;5040943;28;20044;-80
2023/06/24 03:24:25;;;;;;;13.00;11.82;;;;;;;20.01;100.00;95198.47;5040005;28;20496;-78
2023/06/24 03:26:56;;;;;;;12.38;11.27;;;;;;;20.17;100.00;95142.59;5058113;28;20035;-80
2023/06/24 03:29:22;;;;;;;12.80;11.80;;;;;;;20.27;100.00;95161.31;5057495;28;20093;-80
2023/06/24 03:31:48;;;;;;;15.82;10.95;;;;;;;20.81;100.00;95131.28;5057294;28;20029;-80
2023/06/24 03:34:13;;;;;;;13.45;12.52;;;;;;;20.97;100.00;95112.16;5058039;28;20028;-79
2023/06/24 03:36:39;;;;;;;12.38;11.27;;;;;;;21.31;100.00;95057.00;5058420;28;20434;-80
2023/06/24 03:39:05;;;;;;;11.95;11.02;;;;;;;21.34;100.00;95038.09;5040352;28;20047;-80
2023/06/24 03:41:31;;;;;;;11.05;10.23;;;;;;;20.55;100.00;95088.81;5031957;28;20039;-80
2023/06/24 03:43:56;;;;;;;12.68;11.02;;;;;;;20.42;100.00;95135.38;5058291;28;20036;-80
2023/06/24 03:46:21;;;;;;;14.43;11.27;;;;;;;21.22;100.00;95053.16;5054359;28;20028;-81
2023/06/24 03:48:47;;;;;;;12.07;11.13;;;;;;;20.96;100.00;95059.72;5055802;28;20029;-80
2023/06/24 03:51:13;;;;;;;12.93;11.70;;;;;;;20.57;100.00;95124.41;5041150;28;20064;-80
2023/06/24 03:53:38;;;;;;;13.02;12.02;;;;;;;20.49;100.00;95170.28;5062324;28;20029;-80
2023/06/24 03:56:04;;;;;;;13.07;12.05;;;;;;;20.59;100.00;95200.50;5061626;28;20540;-80
2023/06/24 03:58:30;;;;;;;12.90;11.80;;;;;;;20.48;100.00;95205.50;5047469;28;20408;-80
2023/06/24 04:00:56;;;;;;;12.90;11.60;;;;;;;20.52;100.00;95225.09;5050664;28;20028;-80
2023/06/24 04:03:25;;;;;;;12.30;11.23;;;;;;;21.46;100.00;95160.09;5056632;28;20509;-80
2023/06/24 04:05:51;;;;;;;;;;;;;;;20.87;100.00;95140.09;5063356;28;20028;-80
2023/06/24 04:08:17;;;;;;;12.65;11.68;;;;;;;20.50;100.00;95208.75;5061155;28;19922;-80
2023/06/24 04:10:43;;;;;;;13.32;12.20;;;;;;;20.46;100.00;95202.31;5055445;28;20040;-80
2023/06/24 04:13:08;;;;;;;12.07;11.13;;;;;;;20.51;100.00;95233.25;5061071;28;20397;-81
2023/06/24 04:15:34;;;;;;;13.00;11.68;;;;;;;21.87;100.00;95107.09;5061814;28;20124;-81
2023/06/24 04:17:59;;;;;;;10.65;9.75;;;;;;;23.28;100.00;95013.34;5062888;28;20032;-80
2023/06/24 04:20:25;;;;;;;10.23;8.57;;;;;;;24.83;100.00;94913.44;5059412;28;20044;-80
2023/06/24 04:22:50;;;;;;;9.50;8.32;;;;;;;25.32;100.00;94904.03;5060932;28;20073;-80
2023/06/24 04:25:16;;;;;;;8.90;8.27;;;;;;;25.88;100.00;94906.72;5060433;28;20517;-82
2023/06/24 04:27:41;;;;;;;9.32;8.43;;;;;;;26.39;100.00;94912.78;5042328;28;20051;-81
2023/06/24 04:30:07;;;;;;;8.27;7.75;;;;;;;26.70;99.13;94908.94;5052870;28;20024;-82
2023/06/24 04:32:32;;;;;;;8.18;7.57;;;;;;;26.53;100.00;94900.50;5055238;28;20082;-81
2023/06/24 04:35:00;;;;;;;9.02;8.35;;;;;;;26.90;98.80;94902.78;5040813;28;20021;-82
2023/06/24 04:37:25;;;;;;;;;;;;;;;27.47;93.14;94900.31;5035721;28;20028;-82
2023/06/24 04:39:51;;;;;;;8.43;7.73;;;;;;;27.88;89.78;94906.13;5061000;28;19919;-81
2023/06/24 04:42:16;;;;;;;7.78;7.28;;;;;;;27.99;87.29;94898.84;5059455;28;20028;-82
2023/06/24 04:44:42;;;;;;;7.88;7.38;;;;;;;28.39;81.84;94911.78;5042121;28;20039;-81
2023/06/24 04:47:07;;;;;;;8.13;7.53;;;;;;;28.46;82.54;94898.91;5043217;28;20029;-80
2023/06/24 04:49:33;;;;;;;8.85;7.95;;;;;;;27.91;83.02;94896.78;5043719;28;20482;-81
2023/06/24 04:52:02;;;;;;;8.93;8.23;;;;;;;28.37;81.73;94891.81;5040050;28;20495;-83
2023/06/24 04:54:28;;;;;;;7.75;7.15;;;;;;;28.36;83.09;94892.88;5051547;28;20112;-84
2023/06/24 04:56:55;;;;;;;7.95;7.35;;;;;;;28.34;84.45;94890.53;5062340;28;20693;-80
2023/06/24 04:59:24;;;;;;;8.13;7.55;;;;;;;28.09;84.87;94902.25;5060136;28;20413;-81
2023/06/24 05:01:49;;;;;;;7.80;7.30;;;;;;;29.35;79.49;94894.63;5060825;28;20025;-82
2023/06/24 05:04:15;;;;;;;8.02;7.47;;;;;;;29.04;76.45;94898.78;5059452;28;20107;-81
2023/06/24 05:06:40;;;;;;;7.78;7.15;;;;;;;28.66;76.72;94887.25;5061598;28;20060;-82
2023/06/24 05:09:05;;;;;;;7.55;7.05;;;;;;;30.23;71.52;94883.84;5061513;28;20023;-82
2023/06/24 05:11:31;;;;;;;7.93;7.30;;;;;;;31.24;66.93;94894.44;5061169;28;20020;-82
2023/06/24 05:13:57;;;;;;;7.95;7.30;;;;;;;31.40;64.62;94903.72;5061609;28;20024;-81
2023/06/24 05:16:24;;;;;;;7.25;6.75;;;;;;;31.34;66.47;94902.25;5059119;28;20557;-82
2023/06/24 05:18:49;;;;;;;6.97;6.57;;;;;;;32.04;61.75;94907.09;5060821;28;20032;-82
2023/06/24 05:21:15;;;;;;;7.80;7.10;;;;;;;32.30;59.80;94899.97;5058330;28;20117;-81
2023/06/24 05:23:40;;;;;;;8.68;6.28;;;;;;;32.56;57.25;94897.41;5036263;28;20079;-81
2023/06/24 05:26:06;;;;;;;6.20;5.80;;;;;;;33.30;57.04;94890.19;5047150;28;20092;-82
2023/06/24 05:28:31;;;;;;;6.53;6.10;;;;;;;33.66;54.82;94884.53;5055217;28;20032;-82
2023/06/24 05:30:57;;;;;;;7.53;6.70;;;;;;;34.77;52.37;94886.97;5058666;28;20040;-82
2023/06/24 05:33:22;;;;;;;6.70;6.30;;;;;;;33.74;51.91;94889.13;5047651;28;20028;-82
2023/06/24 05:35:49;;;;;;;6.17;5.80;;;;;;;34.62;49.73;94881.34;5053451;28;20039;-82
2023/06/24 05:38:14;;;;;;;6.43;5.93;;;;;;;36.05;49.06;94868.28;5041674;28;20036;-82
2023/06/24 05:40:40;;;;;;;5.93;5.57;;;;;;;36.42;48.03;94864.53;5058354;28;20040;-82
2023/06/24 05:43:05;;;;;;;7.00;6.57;;;;;;;35.65;47.58;94851.84;5060058;28;20036;-81
2023/06/24 05:45:31;;;;;;;6.25;5.85;;;;;;;36.24;47.20;94868.56;5042932;28;20060;-81
2023/06/24 05:47:56;;;;;;;6.77;6.33;;;;;;;37.30;44.55;94858.47;5042800;28;20036;-82
2023/06/24 05:50:21;;;;;;;6.10;5.73;;;;;;;36.15;46.34;94867.09;5058608;28;20024;-81
2023/06/24 05:52:47;;;;;;;5.80;5.40;;;;;;;36.80;42.34;94858.03;5032087;28;20032;-81
2023/06/24 05:55:13;;;;;;;6.13;5.47;;;;;;;37.59;42.41;94868.19;5040918;28;20039;-80
2023/06/24 05:57:39;;;;;;;;;;;;;;;38.18;41.25;94856.69;5054879;28;20035;-79
2023/06/24 06:00:05;;;;;;;;;;;;;;;38.15;42.27;94852.72;5055234;28;19917;-81
2023/06/24 06:02:30;;;;;;;5.50;5.20;;;;;;;38.03;42.03;94860.91;5053226;28;19951;-81
2023/06/24 06:04:56;;;;;;;5.70;5.30;;;;;;;37.57;41.95;94859.63;5046084;28;20578;-80
2023/06/24 06:07:21;;;;;;;5.63;5.30;;;;;;;39.27;40.79;94855.88;5058082;28;20395;-80
2023/06/24 06:09:47;;;;;;;5.77;5.47;;;;;;;37.65;41.39;94853.28;5059828;28;20033;-81
2023/06/24 06:12:12;;;;;;;6.23;5.73;;;;;;;38.55;39.41;94847.19;5058052;28;20324;-81
2023/06/24 06:14:37;;;;;;;4.90;4.60;;;;;;;39.39;37.17;94851.09;5059203;28;20079;-79
2023/06/24 06:17:03;;;;;;;7.27;5.97;;;;;;;38.67;38.33;94851.72;5045638;28;20032;-80
2023/06/24 06:19:29;;;;;;;12.82;6.38;;;;;;;38.29;37.57;94844.97;5056836;28;20056;-82
2023/06/24 06:21:54;;;;;;;6.57;5.93;;;;;;;39.28;38.67;94852.00;5037733;28;20514;-81
2023/06/24 06:24:19;;;;;;;5.80;5.30;;;;;;;39.89;35.93;94852.88;5039977;28;20800;-81
2023/06/24 06:26:45;;;;;;;6.90;6.40;;;;;;;38.48;41.10;94839.69;5043901;28;20032;-82
2023/06/24 06:29:11;;;;;;;7.93;7.43;;;;;;;37.85;41.32;94843.41;5038800;28;20032;-82
2023/06/24 06:31:37;;;;;;;7.28;6.72;;;;;;;33.32;52.23;94842.31;5052521;28;20829;-81
2023/06/24 06:34:03;;;;;;;7.13;6.55;;;;;;;33.04;58.69;94832.97;5037056;28;20055;-81
2023/06/24 06:36:28;;;;;;;8.02;7.07;;;;;;;33.21;59.61;94827.63;5058566;28;20445;-81
2023/06/24 06:38:54;;;;;;;6.72;6.22;;;;;;;32.00;60.65;94834.50;5037292;28;20135;-83
2023/06/24 06:41:24;;;;;;;7.22;6.72;;;;;;;32.26;63.34;94834.63;5034166;28;20542;-81
2023/06/24 06:43:53;;;;;;;7.45;6.85;;;;;;;33.44;57.49;94833.63;5059318;28;20020;-81
2023/06/24 06:46:19;;;;;;;7.18;6.78;;;;;;;38.30;46.58;94841.13;5041533;28;20516;-81
2023/06/24 06:48:44;;;;;;;8.52;7.72;;;;;;;37.93;44.05;94847.88;5058260;28;20037;-83
2023/06/24 06:51:10;;;;;;;8.45;7.93;;;;;;;33.35;54.68;94847.84;5057740;28;20035;-83
2023/06/24 06:53:35;;;;;;;8.57;7.43;;;;;;;33.95;56.80;94848.91;5029852;28;20414;-82
2023/06/24 06:56:00;;;;;;;8.75;8.05;;;;;;;33.13;56.84;94844.53;5039740;28;20036;-81
2023/06/24 06:58:26;;;;;;;7.10;6.60;;;;;;;34.04;59.15;94849.66;5038546;28;20488;-80
2023/06/24 07:00:51;;;;;;;7.95;7.35;;;;;;;32.49;61.98;94846.88;5037654;28;20036;-82
2023/06/24 07:03:17;;;;;;;7.28;6.68;;;;;;;32.65;61.99;94845.38;5053180;28;20393;-81
2023/06/24 07:05:42;;;;;;;7.30;6.55;;;;;;;33.70;62.30;94847.84;5049778;28;20292;-84
2023/06/24 07:08:08;;;;;;;6.95;6.50;;;;;;;34.77;53.57;94843.09;5071898;28;20025;-81
2023/06/24 07:10:33;;;;;;;7.40;6.93;;;;;;;36.92;48.87;94837.22;5055920;28;20486;-83
2023/06/24 07:12:59;;;;;;;7.78;7.13;;;;;;;34.75;54.81;94840.72;5037142;28;20050;-82
2023/06/24 07:15:27;;;;;;;8.00;7.43;;;;;;;31.48;67.06;94848.63;5049890;28;20043;-81
2023/06/24 07:17:53;;;;;;;7.97;7.47;;;;;;;32.01;65.92;94849.47;5050349;28;20021;-83
2023/06/24 07:20:20;;;;;;;8.70;7.93;;;;;;;30.59;72.21;94843.09;5058815;28;20502;-82
2023/06/24 07:22:45;;;;;;;8.00;7.50;;;;;;;32.04;69.36;94837.38;5033214;28;20036;-81
2023/06/24 07:25:11;;;;;;;7.82;7.10;;;;;;;32.10;71.77;94847.66;5033912;28;20028;-85
2023/06/24 07:27:37;;;;;;;7.72;7.13;;;;;;;32.18;70.21;94846.09;5034658;28;20054;-81
2023/06/24 07:30:03;;;;;;;8.15;7.55;;;;;;;30.95;72.91;94840.44;5050421;28;20029;-80
2023/06/24 07:32:29;;;;;;;8.25;7.75;;;;;;;31.77;72.61;94847.13;5047231;28;20102;-79
2023/06/24 07:34:54;;;;;;;8.60;8.00;;;;;;;31.86;69.69;94836.44;5043904;28;20501;-80
2023/06/24 07:37:20;;;;;;;8.27;7.78;;;;;;;30.75;72.40;94841.69;5048287;28;20587;-80
2023/06/24 07:39:45;;;;;;;7.70;7.18;;;;;;;31.93;68.80;94828.78;5036646;28;20501;-81
2023/06/24 07:42:10;;;;;;;7.70;7.10;;;;;;;32.06;70.82;94841.31;5038209;28;20767;-81
2023/06/24 07:44:38;;;;;;;7.60;7.10;;;;;;;32.08;69.39;94832.97;5039299;28;20202;-82
2023/06/24 07:47:03;;;;;;;8.57;6.80;;;;;;;31.88;68.22;94832.34;5040856;28;20044;-83
2023/06/24 07:49:29;;;;;;;8.00;7.35;;;;;;;31.65;71.04;94835.38;5057361;28;20052;-82
2023/06/24 07:51:54;;;;;;;8.10;7.40;;;;;;;31.12;77.60;94835.25;5054262;28;20036;-82
2023/06/24 07:54:19;;;;;;;8.23;7.60;;;;;;;31.56;75.15;94838.03;5052702;28;20039;-81
2023/06/24 07:56:45;;;;;;;7.80;7.15;;;;;;;31.97;74.97;94837.78;5056174;28;20035;-81
2023/06/24 07:59:10;;;;;;;7.97;7.40;;;;;;;32.27;73.81;94838.91;5058023;28;20413;-81
2023/06/24 08:01:36;;;;;;;7.85;7.35;;;;;;;32.22;72.20;94841.72;5056550;28;20418;-84
2023/06/24 08:04:01;;;;;;;10.13;7.55;;;;;;;31.98;69.36;94831.31;5036165;28;20116;-81
2023/06/24 08:06:27;;;;;;;8.57;7.88;;;;;;;30.34;73.46;94831.00;5057413;28;20037;-82
2023/06/24 08:08:52;;;;;;;9.27;8.25;;;;;;;29.86;78.77;94848.47;5056887;28;20021;-81
2023/06/24 08:11:18;;;;;;;9.05;8.45;;;;;;;28.87;81.12;94837.09;5057740;28;20462;-82
2023/06/24 08:13:43;;;;;;;15.32;10.40;;;;;;;30.58;79.37;94831.59;5039528;28;20020;-81
2023/06/24 08:16:08;;;;;;;8.68;7.85;;;;;;;31.53;71.35;94835.94;5040763;28;20432;-80
2023/06/24 08:18:34;;;;;;;8.18;7.47;;;;;;;31.61;75.04;94831.72;5056406;28;20029;-81
2023/06/24 08:20:59;;;;;;;9.05;8.38;;;;;;;30.26;77.74;94840.47;5058893;28;20056;-82
2023/06/24 08:23:25;;;;;;;8.90;8.30;;;;;;;30.51;73.19;94835.75;5057010;28;20671;-81
2023/06/24 08:25:50;;;;;;;14.07;7.82;;;;;;;31.37;75.13;94841.94;5040527;28;20522;-81
2023/06/24 08:28:16;;;;;;;9.32;7.78;;;;;;;31.94;75.97;94835.72;5040783;28;20017;-81
2023/06/24 08:30:41;;;;;;;8.00;7.30;;;;;;;31.59;75.25;94841.97;5036546;28;20071;-87
2023/06/24 08:33:06;;;;;;;7.75;7.03;;;;;;;32.04;74.09;94840.84;5038958;28;20031;-82
2023/06/24 08:35:32;;;;;;;8.70;8.07;;;;;;;31.69;72.85;94841.72;5042835;28;20033;-80
2023/06/24 08:37:57;;;;;;;7.88;7.13;;;;;;;31.84;66.26;94833.28;5062108;28;20053;-83
2023/06/24 08:40:23;;;;;;;13.38;7.88;;;;;;;31.99;66.17;94837.47;5054532;28;20491;-82
2023/06/24 08:42:48;;;;;;;8.95;8.27;;;;;;;31.03;68.04;94834.41;5060443;28;20028;-83
2023/06/24 08:45:14;;;;;;;8.25;7.40;;;;;;;31.14;67.63;94825.06;5057305;28;20555;-82
2023/06/24 08:47:40;;;;;;;7.95;7.35;;;;;;;31.45;69.77;94830.50;5054745;28;20032;-83
2023/06/24 08:50:11;;;;;;;7.97;7.47;;;;;;;31.60;67.72;94822.91;5057349;28;20025;-85
2023/06/24 08:52:38;;;;;;;8.50;7.90;;;;;;;29.83;66.43;94815.06;5037284;28;20063;-81
2023/06/24 08:55:06;;;;;;;9.60;8.75;;;;;;;30.57;70.47;94819.28;5054192;28;20102;-83
2023/06/24 08:57:32;;;;;;;8.73;8.05;;;;;;;29.75;69.28;94811.19;5038953;28;20043;-84
2023/06/24 08:59:57;;;;;;;8.95;8.15;;;;;;;31.08;75.60;94808.31;5039442;28;20416;-83
2023/06/24 09:02:23;;;;;;;17.42;9.00;;;;;;;30.43;69.34;94810.50;5038805;28;20416;-83
2023/06/24 09:04:51;;;;;;;8.68;8.07;;;;;;;31.52;75.00;94810.25;5037489;28;20544;-84
2023/06/24 09:07:26;;;;;;;8.85;8.15;;;;;;;31.01;68.07;94802.59;5038392;28;20060;-87
2023/06/24 09:09:51;;;;;;;8.68;7.97;;;;;;;30.75;72.18;94805.00;5033676;28;20424;-84
2023/06/24 09:12:17;;;;;;;7.95;7.40;;;;;;;31.49;69.41;94788.59;5032567;28;20036;-83
2023/06/24 09:14:48;;;;;;;8.35;7.65;;;;;;;31.24;67.13;94792.69;5057352;28;20140;-83
2023/06/24 09:17:13;;;;;;;9.45;8.65;;;;;;;30.52;65.15;94792.66;5056748;28;20481;-83
2023/06/24 09:19:39;;;;;;;8.32;7.65;;;;;;;30.83;68.18;94796.25;5053753;28;20131;-84
2023/06/24 09:22:08;;;;;;;12.27;7.72;;;;;;;31.31;66.66;94803.75;5058034;28;20509;-83
2023/06/24 09:24:35;;;;;;;8.38;7.78;;;;;;;31.72;69.64;94793.66;5059086;28;20474;-84
2023/06/24 09:27:00;;;;;;;8.20;7.60;;;;;;;31.48;65.63;94795.06;5056305;28;20036;-85
2023/06/24 09:29:27;;;;;;;9.25;8.55;;;;;;;30.56;63.23;94795.53;5028761;28;20690;-86
2023/06/24 09:31:53;;;;;;;9.40;8.60;;;;;;;30.53;68.32;94796.94;5054189;28;20094;-87
2023/06/24 09:34:19;;;;;;;9.20;8.38;;;;;;;30.46;64.17;94796.53;5055847;28;20043;-85
2023/06/24 09:36:51;;;;;;;8.45;7.95;;;;;;;31.58;69.15;94794.84;5054076;28;20036;-83
2023/06/24 09:39:17;;;;;;;8.52;7.93;;;;;;;31.76;64.68;94796.50;5056162;28;20086;-82
2023/06/24 09:41:43;;;;;;;9.13;8.30;;;;;;;31.99;64.87;94803.41;5057455;28;20075;-87
2023/06/24 09:44:10;;;;;;;8.60;7.90;;;;;;;31.83;60.81;94791.50;5041581;28;20020;-86
2023/06/24 09:46:37;;;;;;;8.23;7.63;;;;;;;31.29;66.04;94808.63;5055755;28;20486;-82
2023/06/24 09:49:06;;;;;;;8.65;8.13;;;;;;;30.97;65.30;94798.13;5037762;28;20036;-89
2023/06/24 09:51:39;;;;;;;8.80;8.20;;;;;;;30.83;66.17;94812.31;5054781;28;20174;-85
2023/06/24 09:54:08;;;;;;;9.13;8.40;;;;;;;31.04;63.03;94803.88;5043943;28;20021;-86
2023/06/24 09:56:40;;;;;;;9.20;8.48;;;;;;;31.27;66.37;94806.25;5056532;28;20085;-85
2023/06/24 09:59:06;;;;;;;9.73;9.02;;;;;;;30.61;65.95;94806.91;5054199;28;20032;-87
2023/06/24 10:01:33;;;;;;;10.60;8.63;;;;;;;31.14;69.19;94798.28;5056542;28;20060;-88
2023/06/24 10:03:59;;;;;;;9.05;8.25;;;;;;;31.04;65.80;94796.63;5055652;28;20021;-84
2023/06/24 10:06:28;;;;;;;8.93;8.27;;;;;;;31.70;64.50;94800.41;5053796;28;20024;-83
2023/06/24 10:08:54;;;;;;;9.00;8.32;;;;;;;31.12;64.05;94797.78;5047686;28;20021;-81
2023/06/24 10:11:19;;;;;;;9.30;8.13;;;;;;;31.38;65.21;94804.13;5053366;28;20473;-84
2023/06/24 10:13:45;;;;;;;8.88;8.13;;;;;;;31.79;65.27;94793.22;5053797;28;20056;-83
2023/06/24 10:16:10;;;;;;;8.45;7.75;;;;;;;31.88;63.16;94783.34;5056954;28;20032;-82
2023/06/24 10:18:38;;;;;;;8.65;8.00;;;;;;;31.51;63.86;94787.22;5057036;28;20035;-84
2023/06/24 10:21:05;;;;;;;9.70;8.95;;;;;;;30.75;64.87;94788.97;5031238;28;20110;-84
2023/06/24 10:23:33;;;;;;;8.98;8.27;;;;;;;31.40;65.85;94772.50;5051149;28;20029;-86
2023/06/24 10:25:58;;;;;;;9.43;8.45;;;;;;;31.71;65.61;94778.69;5059481;28;20081;-84
2023/06/24 10:28:24;;;;;;;9.13;8.27;;;;;;;31.95;65.86;94764.13;5040779;28;20036;-85
2023/06/24 10:30:58;;;;;;;9.73;8.75;;;;;;;31.53;58.67;94762.81;5051080;28;20693;-87
2023/06/24 10:33:25;;;;;;;9.00;8.40;;;;;;;31.74;65.04;94762.00;5050019;28;20100;-81
2023/06/24 10:35:51;;;;;;;8.57;7.90;;;;;;;31.02;66.64;94750.63;5057853;28;20028;-83
2023/06/24 10:38:17;;;;;;;9.32;8.27;;;;;;;31.40;66.55;94745.72;5058771;28;20399;-80
2023/06/24 10:40:43;;;;;;;9.20;8.32;;;;;;;30.78;66.81;94736.72;5059214;28;20039;-82
2023/06/24 10:43:24;;;;;;;9.13;8.30;;;;;;;30.87;69.88;94729.56;5044895;28;20035;-83
2023/06/24 10:45:54;;;;;;;8.93;8.05;;;;;;;31.42;65.60;94730.09;5059102;28;20029;-81
2023/06/24 10:48:20;;;;;;;9.77;8.88;;;;;;;31.10;63.47;94725.03;5051713;28;20039;-84
2023/06/24 10:50:45;;;;;;;8.32;7.63;;;;;;;31.50;64.72;94721.34;5038518;28;20029;-82
2023/06/24 10:53:12;;;;;;;9.30;8.50;;;;;;;31.26;63.30;94707.50;5038387;28;20032;-88
2023/06/24 10:55:38;;;;;;;9.93;8.73;;;;;;;31.09;69.76;94707.38;5058623;28;20036;-82
2023/06/24 10:58:12;;;;;;;9.73;8.80;;;;;;;30.70;69.69;94703.44;5057422;28;20028;-83
2023/06/24 11:00:37;;;;;;;9.50;8.57;;;;;;;30.67;69.54;94711.28;5042287;28;20037;-83
2023/06/24 11:03:13;;;;;;;8.88;8.27;;;;;;;31.31;65.39;94710.03;5057223;28;20452;-81
2023/06/24 11:05:44;;;;;;;9.88;8.88;;;;;;;31.21;63.62;94710.31;5058109;28;20394;-80
2023/06/24 11:08:09;;;;;;;30.23;14.38;;;;;;;30.95;64.35;94709.31;5057158;28;20549;-82
2023/06/24 11:10:46;;;;;;;8.57;7.88;;;;;;;31.39;64.43;94703.16;5041000;28;20040;-82
2023/06/24 11:13:12;;;;;;;9.02;8.32;;;;;;;31.73;63.11;94701.44;5038746;28;20082;-82
2023/06/24 11:15:39;;;;;;;14.73;8.35;;;;;;;31.52;67.52;94697.75;5048062;28;20021;-82
2023/06/24 11:18:05;;;;;;;12.60;9.85;;;;;;;30.66;64.88;94705.16;5051870;28;20044;-86
2023/06/24 11:20:30;;;;;;;13.52;10.02;;;;;;;30.80;69.96;94702.41;5039597;28;20067;-82
2023/06/24 11:22:56;;;;;;;12.23;10.48;;;;;;;30.68;70.89;94702.97;5040597;28;20477;-85